Flugplatz Baumholder (ETEK)

Hier findest Du alle Informationen zum Flugplatz Baumholder (ETEK).

Informationen für Piloten zum Flugplatz Baumholder

Hier findest Du alle relevanten Informationen, die Du als Pilot benötigst, um Baumholder anzufliegen.

Flugplatz: Baumholder ICAO-Code: ETEK
Frequenz Turm: 122,100 Mhz GAFOR Gebiet: 44
Frequenz Ground: 122,100 Mhz Mogas: nein
Platzrunde: - Landegebühr: -
Platzhöhe: - Sunrise: 04:17 Uhr UTC
Pisten: 07/25 - 575 m x , ASPH Sunset: 18:53 Uhr UTC

Flugwetter am Flugplatz Baumholder

Die METAR Information stammen aus EDFH (33.25 km entfernt).

METAR Code:
2020/08/10 04:50
EDFH 100450Z 08005KT 020V130 CAVOK 20/14 Q1017

Flugschulen am Flugplatz Baumholder

Am Flugplatz Baumholder gibt es leider keine Flugschule.

Benachbarte Flugplätze und Flugschulen

Es gibt 21 weitere Flugplätze in einem Umkreis von 50 km um den Flugplatz Baumholder.

Jetzt anmelden

Passwort vergessen

Umfrage Archiv

Wären Rettungsgeräte keine Pflicht mehr, würdet Ihr Euer UL trotzdem mit einem ausstatten?

Ja
83.5 %
Nein
16.5 %
Stimmen: 260 | Diskussion
Anzeige: Roland Aircraft
Statistik Alle Mitglieder

Aktuell sind 46 Besucher online.

Anzeige: VFR Sprechfunk Simulator


Anzeige: Pocket FMS